Time;durP1;ratioP1;P1;durP2;ratioP2;P2;SDS_P1;SDS_P2;PMS_P1;PMS_P2;Temp;Humidity;BMP_temperature;BMP_pressure;BME280_temperature;BME280_humidity;BME280_pressure;Samples;Min_cycle;Max_cycle;Signal;HPM_P1;HPM_P2
2021/10/22 00:01:00;;;;;;;;;3.00;2.00;;;;;21.34;40.83;101477.13;5018711;28;45237;-56
2021/10/22 00:03:26;;;;;;;;;6.50;2.75;;;;;21.33;41.33;101478.91;5016834;28;46467;-56
2021/10/22 00:05:52;;;;;;;;;1.75;1.75;;;;;21.33;41.00;101491.25;5018594;28;45395;-56
2021/10/22 00:08:18;;;;;;;;;2.00;2.00;;;;;21.33;40.86;101494.75;5018270;28;45418;-57
2021/10/22 00:10:44;;;;;;;;;1.50;1.50;;;;;21.31;41.37;101494.81;5018328;28;45644;-57
2021/10/22 00:13:10;;;;;;;;;3.75;2.50;;;;;21.33;40.95;101493.91;5018191;28;47218;-56
2021/10/22 00:15:36;;;;;;;;;3.00;3.00;;;;;21.32;41.30;101498.31;5018026;28;45760;-57
2021/10/22 00:18:01;;;;;;;;;2.00;2.00;;;;;21.33;41.29;101504.44;5017805;28;45371;-58
2021/10/22 00:20:27;;;;;;;;;4.00;3.25;;;;;21.31;41.21;101496.59;5018304;28;45430;-58
2021/10/22 00:22:52;;;;;;;;;2.50;2.50;;;;;21.31;41.20;101497.47;5018087;28;45373;-57
2021/10/22 00:25:19;;;;;;;;;3.00;2.50;;;;;21.32;41.03;101493.03;5017863;28;45330;-57
2021/10/22 00:27:45;;;;;;;;;1.50;1.50;;;;;21.30;41.18;101500.16;5017991;28;45181;-57
2021/10/22 00:30:10;;;;;;;;;2.50;2.25;;;;;21.30;41.20;101490.47;5018242;28;45475;-57
2021/10/22 00:32:36;;;;;;;;;3.75;2.75;;;;;21.30;40.97;101493.13;5017710;28;45489;-57
2021/10/22 00:35:01;;;;;;;;;2.00;2.00;;;;;21.29;41.39;101496.69;5017865;28;45289;-57
2021/10/22 00:37:26;;;;;;;;;3.50;2.50;;;;;21.30;40.85;101498.38;5017935;28;45186;-55
2021/10/22 00:39:52;;;;;;;;;4.00;2.75;;;;;21.26;40.72;101488.91;5018218;28;45234;-55
2021/10/22 00:42:18;;;;;;;;;3.00;2.25;;;;;21.28;41.02;101496.72;5017489;28;46430;-56
2021/10/22 00:44:43;;;;;;;;;2.00;2.00;;;;;21.29;40.96;101499.31;5017646;28;45434;-56
2021/10/22 00:47:09;;;;;;;;;2.00;2.00;;;;;21.30;40.72;101497.50;5017707;28;45439;-57
2021/10/22 00:49:35;;;;;;;;;1.50;1.50;;;;;21.28;40.90;101496.72;5017785;28;45336;-56
2021/10/22 00:52:01;;;;;;;;;3.00;3.00;;;;;21.28;41.09;101502.88;5017481;28;45368;-55
2021/10/22 00:54:26;;;;;;;;;3.00;3.00;;;;;21.27;40.96;101495.88;5017591;28;45708;-55
2021/10/22 00:56:52;;;;;;;;;1.50;1.50;;;;;21.29;40.95;101501.06;5017869;28;45408;-56
2021/10/22 00:59:18;;;;;;;;;2.00;2.00;;;;;21.28;40.85;101499.38;5017680;28;45380;-56
2021/10/22 01:01:43;;;;;;;;;7.00;2.00;;;;;21.27;40.77;101501.16;5017182;28;45467;-56
2021/10/22 01:04:09;;;;;;;;;1.75;1.75;;;;;21.26;41.18;101499.44;5017172;28;45461;-56
2021/10/22 01:06:38;;;;;;;;;3.00;3.00;;;;;21.28;41.04;101502.00;5017435;28;45323;-55
2021/10/22 01:09:08;;;;;;;;;3.00;3.00;;;;;21.27;41.12;101505.59;5017454;28;45622;-55
2021/10/22 01:11:34;;;;;;;;;4.00;3.00;;;;;21.25;41.32;101505.66;5017210;28;45295;-56
2021/10/22 01:14:02;;;;;;;;;2.00;1.75;;;;;21.25;41.07;101508.28;5017296;28;45315;-56
2021/10/22 01:16:27;;;;;;;;;2.50;2.50;;;;;21.25;41.06;101507.44;5017544;28;45561;-55
2021/10/22 01:18:52;;;;;;;;;2.50;2.50;;;;;21.26;41.45;101504.72;5018210;28;45281;-54
2021/10/22 01:21:18;;;;;;;;;4.25;3.50;;;;;21.26;40.90;101509.16;5017152;28;45360;-55
2021/10/22 01:23:43;;;;;;;;;3.00;3.00;;;;;21.25;41.01;101510.09;5017120;28;45486;-55
2021/10/22 01:26:09;;;;;;;;;4.00;3.00;;;;;21.27;41.24;101516.97;5017144;28;45741;-55
2021/10/22 01:28:34;;;;;;;;;4.00;3.00;;;;;21.25;41.32;101525.91;5016249;28;45323;-56
2021/10/22 01:30:59;;;;;;;;;4.00;3.00;;;;;21.24;41.19;101516.28;5016994;28;46171;-54
2021/10/22 01:33:25;;;;;;;;;4.00;3.00;;;;;21.25;41.26;101513.56;5017162;28;45308;-55
2021/10/22 01:35:51;;;;;;;;;3.00;3.00;;;;;21.25;40.98;101515.34;5016956;28;45285;-55
2021/10/22 01:38:22;;;;;;;;;3.00;3.00;;;;;21.24;41.00;101517.13;5016993;28;45320;-55
2021/10/22 01:40:49;;;;;;;;;3.00;3.00;;;;;21.24;40.97;101517.13;5015687;28;45583;-54
2021/10/22 01:43:15;;;;;;;;;3.00;3.00;;;;;21.23;40.98;101515.41;5016525;28;45744;-54
2021/10/22 01:45:40;;;;;;;;;1.75;1.75;;;;;21.24;40.95;101518.91;5016809;28;45442;-54
2021/10/22 01:48:06;;;;;;;;;3.00;3.00;;;;;21.23;41.22;101523.31;5016884;28;45816;-54
2021/10/22 01:50:31;;;;;;;;;3.25;3.25;;;;;21.23;40.94;101523.31;5016732;28;45472;-56
2021/10/22 01:52:57;;;;;;;;;3.00;3.00;;;;;21.22;41.19;101516.34;5016756;28;45522;-54
2021/10/22 01:55:23;;;;;;;;;4.25;3.00;;;;;21.23;41.17;101523.31;5016867;28;45280;-56
2021/10/22 01:57:49;;;;;;;;;3.00;3.00;;;;;21.23;40.79;101525.94;5016950;28;45486;-55
2021/10/22 02:00:14;;;;;;;;;2.75;2.75;;;;;21.23;41.19;101525.13;5016312;28;45444;-56
2021/10/22 02:02:40;;;;;;;;;3.25;3.00;;;;;21.22;41.40;101518.97;5016228;28;45772;-56
2021/10/22 02:05:06;;;;;;;;;2.50;2.50;;;;;21.23;40.93;101520.69;5016443;28;45285;-55
2021/10/22 02:07:32;;;;;;;;;2.25;2.25;;;;;21.22;41.28;101518.13;5016672;28;45340;-57
2021/10/22 02:09:58;;;;;;;;;3.75;3.00;;;;;21.23;41.01;101525.94;5016501;28;45533;-56
2021/10/22 02:12:23;;;;;;;;;6.25;3.00;;;;;21.19;41.24;101518.25;5016327;28;45336;-55
2021/10/22 02:14:48;;;;;;;;;2.75;2.75;;;;;21.20;41.02;101518.22;5016396;28;45447;-55
2021/10/22 02:17:14;;;;;;;;;2.75;2.75;;;;;21.20;41.02;101520.84;5016571;28;45497;-55
2021/10/22 02:19:39;;;;;;;;;3.25;3.00;;;;;21.20;41.42;101520.84;5016227;28;45633;-56
2021/10/22 02:22:05;;;;;;;;;3.50;3.50;;;;;21.19;40.90;101513.88;5015979;28;45414;-57
2021/10/22 02:24:30;;;;;;;;;2.75;2.75;;;;;21.19;41.41;101513.88;5016631;28;45348;-56
2021/10/22 02:26:56;;;;;;;;;3.00;3.00;;;;;21.20;41.07;101523.47;5016518;28;45347;-55
2021/10/22 02:29:21;;;;;;;;;3.00;3.00;;;;;21.19;41.08;101521.78;5016104;28;45454;-55
2021/10/22 02:31:46;;;;;;;;;5.75;4.00;;;;;21.19;41.06;101516.50;5014729;28;45447;-57
2021/10/22 02:34:12;;;;;;;;;4.00;3.00;;;;;21.20;41.35;101523.47;5016149;28;45414;-57
2021/10/22 02:36:38;;;;;;;;;5.00;3.00;;;;;21.19;40.97;101513.88;5016376;28;45520;-56
2021/10/22 02:39:04;;;;;;;;;3.00;3.00;;;;;21.17;41.25;101510.44;5015966;28;46588;-55
2021/10/22 02:41:30;;;;;;;;;3.50;3.00;;;;;21.17;41.04;101508.66;5018039;28;45727;-54
2021/10/22 02:43:56;;;;;;;;;2.50;2.00;;;;;21.18;41.20;101504.25;5019743;28;45308;-54
2021/10/22 02:46:21;;;;;;;;;4.50;3.50;;;;;21.17;41.28;101510.44;5019773;28;45242;-56
2021/10/22 02:48:46;;;;;;;;;3.00;3.00;;;;;21.17;41.40;101511.28;5019228;28;49125;-56
2021/10/22 02:51:12;;;;;;;;;2.00;2.00;;;;;21.19;41.49;101508.59;5018038;28;45494;-56
2021/10/22 02:53:37;;;;;;;;;3.50;3.50;;;;;21.17;41.38;101510.44;5019503;28;45400;-59
2021/10/22 02:56:03;;;;;;;;;3.50;2.75;;;;;21.17;40.87;101523.63;5019625;28;45521;-55
2021/10/22 02:58:29;;;;;;;;;3.25;3.25;;;;;21.17;40.96;101523.63;5019579;28;45293;-55
2021/10/22 03:00:54;;;;;;;;;3.00;3.00;;;;;21.17;41.08;101531.53;5019225;28;45403;-54
2021/10/22 03:03:20;;;;;;;;;4.00;2.25;;;;;21.17;40.78;101531.53;5019162;28;45435;-55
2021/10/22 03:05:45;;;;;;;;;4.75;4.00;;;;;21.17;41.16;101524.47;5019406;28;45245;-56
2021/10/22 03:08:10;;;;;;;;;2.25;2.25;;;;;21.17;40.98;101523.63;5019282;28;46507;-55
2021/10/22 03:10:36;;;;;;;;;3.00;2.00;;;;;21.17;40.95;101521.00;5019150;28;45368;-55
2021/10/22 03:13:01;;;;;;;;;1.50;1.50;;;;;21.16;41.17;101520.16;5019631;28;45351;-55
2021/10/22 03:15:27;;;;;;;;;2.00;2.00;;;;;21.15;41.21;101523.69;5019487;28;45384;-54
2021/10/22 03:17:54;;;;;;;;;4.00;3.00;;;;;21.15;41.03;101523.69;5018904;28;45674;-55
2021/10/22 03:20:20;;;;;;;;;3.00;3.00;;;;;21.15;41.16;101523.69;5018932;28;45243;-55
2021/10/22 03:22:45;;;;;;;;;2.00;2.00;;;;;21.15;40.92;101517.56;5019043;28;45344;-55
2021/10/22 03:25:11;;;;;;;;;2.00;2.00;;;;;21.15;41.36;101517.56;5019051;28;45608;-55
2021/10/22 03:27:37;;;;;;;;;4.00;4.00;;;;;21.15;40.76;101525.47;5018828;28;46315;-55
2021/10/22 03:30:03;;;;;;;;;3.75;2.00;;;;;21.15;40.82;101528.09;5018962;28;45261;-56
2021/10/22 03:32:32;;;;;;;;;2.00;2.00;;;;;21.15;41.00;101528.09;5018893;28;45376;-54
2021/10/22 03:34:58;;;;;;;;;3.00;2.00;;;;;21.15;40.85;101528.09;5019012;28;45484;-54
2021/10/22 03:37:23;;;;;;;;;2.00;2.00;;;;;21.15;41.18;101522.84;5018579;28;45411;-55
2021/10/22 03:39:48;;;;;;;;;3.00;2.75;;;;;21.13;41.00;101528.19;5018521;28;47116;-54
2021/10/22 03:42:14;;;;;;;;;3.50;2.75;;;;;21.14;41.40;101526.41;5018835;28;45286;-54
2021/10/22 03:44:39;;;;;;;;;4.50;2.75;;;;;21.13;41.08;101535.22;5050508;28;45570;-55
2021/10/22 03:47:05;;;;;;;;;3.25;2.50;;;;;21.13;41.30;101529.94;5018774;28;47220;-56
2021/10/22 03:49:31;;;;;;;;;2.50;2.50;;;;;21.13;40.98;101536.09;5017419;28;46195;-56
2021/10/22 03:51:57;;;;;;;;;2.00;2.00;;;;;21.14;41.17;101536.94;5017840;28;45202;-55
2021/10/22 03:54:22;;;;;;;;;3.25;3.25;;;;;21.12;41.27;101536.16;5018628;28;45503;-53
2021/10/22 03:56:47;;;;;;;;;2.00;2.00;;;;;21.12;40.97;101537.03;5018263;28;45602;-53
2021/10/22 03:59:16;;;;;;;;;1.75;1.75;;;;;21.14;41.06;101536.94;5018355;28;45377;-55
2021/10/22 04:01:41;;;;;;;;;2.00;2.00;;;;;21.12;40.98;101539.66;5017068;28;45444;-54
2021/10/22 04:04:07;;;;;;;;;2.00;2.00;;;;;21.10;41.18;101530.13;5018352;28;45358;-55
2021/10/22 04:06:33;;;;;;;;;2.00;1.75;;;;;21.12;41.10;101537.03;5018396;28;45424;-55
2021/10/22 04:08:58;;;;;;;;;2.75;2.75;;;;;21.11;41.39;101529.19;5018111;28;45567;-53
2021/10/22 04:11:23;;;;;;;;;3.00;2.00;;;;;21.10;41.02;101536.22;5018302;28;45228;-55
2021/10/22 04:13:49;;;;;;;;;1.75;1.75;;;;;21.11;41.22;101534.47;5018439;28;45653;-55
2021/10/22 04:16:14;;;;;;;;;3.00;3.00;;;;;21.11;41.29;101537.94;5018109;28;45535;-56
2021/10/22 04:18:40;;;;;;;;;2.00;2.00;;;;;21.10;41.09;101540.66;5018069;28;45475;-55
2021/10/22 04:21:05;;;;;;;;;3.00;1.00;;;;;21.10;41.51;101543.28;5018565;28;45484;-55
2021/10/22 04:23:31;;;;;;;;;2.00;2.00;;;;;21.09;41.03;101539.78;5018251;28;45334;-55
2021/10/22 04:25:56;;;;;;;;;2.50;2.00;;;;;21.10;41.16;101540.66;5049920;28;46011;-55
2021/10/22 04:28:21;;;;;;;;;1.25;1.25;;;;;21.06;41.25;101531.19;5017970;28;45368;-56
2021/10/22 04:30:47;;;;;;;;;3.25;3.25;;;;;21.09;40.87;101539.78;5018140;28;45302;-56
2021/10/22 04:33:12;;;;;;;;;2.75;2.50;;;;;21.06;40.77;101542.56;5018294;28;45617;-56
2021/10/22 04:35:38;;;;;;;;;3.75;2.50;;;;;21.06;40.77;101534.66;5016436;28;46296;-56
2021/10/22 04:40:51;;;;;;;;;1.00;1.00;;;;;21.05;41.22;101547.91;5017719;28;45225;-56
2021/10/22 04:43:17;;;;;;;;;3.00;2.00;;;;;21.02;41.40;101554.19;5017737;28;45515;-56
2021/10/22 04:45:47;;;;;;;;;1.75;1.75;;;;;21.02;40.76;101559.47;5017532;28;46615;-56
2021/10/22 04:48:13;;;;;;;;;3.75;2.25;;;;;21.01;40.97;101565.66;5017723;28;45246;-56
2021/10/22 04:50:43;;;;;;;;;2.00;2.00;;;;;20.98;40.27;101564.03;5016999;28;45451;-56
2021/10/22 04:53:09;;;;;;;;;2.50;2.00;;;;;20.94;40.13;101562.44;5016854;28;45314;-55
2021/10/22 04:55:35;;;;;;;;;2.00;1.50;;;;;20.93;40.21;101563.38;5017737;28;46155;-55
2021/10/22 04:58:00;;;;;;;;;1.75;1.75;;;;;20.91;39.78;101567.84;5017510;28;45393;-56
2021/10/22 05:00:26;;;;;;;;;2.00;2.00;;;;;20.87;39.88;101573.31;5016212;28;45457;-55
2021/10/22 05:02:51;;;;;;;;;1.00;1.00;;;;;20.85;39.67;101576.03;5017424;28;45170;-55
2021/10/22 05:05:17;;;;;;;;;1.25;1.25;;;;;20.82;40.07;101578.78;5015897;28;45613;-55
2021/10/22 05:07:43;;;;;;;;;4.00;3.00;;;;;20.79;39.78;101576.28;5017309;28;45463;-54
2021/10/22 05:10:09;;;;;;;;;3.50;3.50;;;;;20.78;39.71;101574.63;5017823;28;45427;-56
2021/10/22 05:12:35;;;;;;;;;2.25;2.25;;;;;20.77;39.45;101576.38;5018023;28;45550;-57
2021/10/22 05:15:02;;;;;;;;;3.00;3.00;;;;;20.76;39.82;101572.03;5016979;28;45348;-57
2021/10/22 05:17:28;;;;;;;;;3.00;2.00;;;;;20.74;39.48;101573.00;5017326;28;45321;-56
2021/10/22 05:19:54;;;;;;;;;3.00;3.00;;;;;20.76;39.43;101584.34;5017273;28;45235;-56
2021/10/22 05:22:21;;;;;;;;;2.00;2.00;;;;;20.75;39.10;101583.47;5017630;28;45354;-57
2021/10/22 05:24:46;;;;;;;;;3.50;3.50;;;;;20.73;39.34;101577.38;5016924;28;46588;-56
2021/10/22 05:27:12;;;;;;;;;2.00;2.00;;;;;20.73;39.28;101571.28;5017046;28;45343;-56
2021/10/22 05:29:37;;;;;;;;;3.50;3.50;;;;;20.70;38.96;101575.75;5017528;28;45345;-56
2021/10/22 05:32:03;;;;;;;;;2.50;2.50;;;;;20.70;39.55;101577.53;5017311;28;45408;-56
2021/10/22 05:34:29;;;;;;;;;2.50;2.50;;;;;20.70;39.49;101581.03;5015571;28;47043;-56
2021/10/22 05:36:54;;;;;;;;;4.00;2.00;;;;;20.69;39.39;101584.56;5016933;28;45324;-55
2021/10/22 05:39:20;;;;;;;;;2.50;2.25;;;;;20.68;39.11;101579.38;5017074;28;45312;-55
2021/10/22 05:41:47;;;;;;;;;2.75;2.75;;;;;20.67;39.16;101581.16;5017007;28;45268;-57
2021/10/22 05:44:14;;;;;;;;;2.00;2.00;;;;;20.65;39.04;101569.84;5016712;28;45633;-56
2021/10/22 05:46:39;;;;;;;;;4.00;4.00;;;;;20.63;38.59;101574.31;5015851;28;45602;-56
2021/10/22 05:49:05;;;;;;;;;2.00;2.00;;;;;20.63;38.80;101578.72;5032249;28;45303;-56
2021/10/22 05:51:31;;;;;;;;;3.00;2.00;;;;;20.61;38.94;101581.44;5017027;28;45241;-55
2021/10/22 05:53:56;;;;;;;;;1.75;1.75;;;;;20.59;38.86;101571.91;5016631;28;46441;-56
2021/10/22 05:56:22;;;;;;;;;2.00;2.00;;;;;20.57;38.67;101582.47;5048735;28;45398;-57
2021/10/22 05:58:47;;;;;;;;;1.75;1.00;;;;;20.56;38.75;101583.41;5016679;28;45376;-57
2021/10/22 06:01:13;;;;;;;;;3.00;3.00;;;;;20.57;38.96;101590.38;5016852;28;45587;-56
2021/10/22 06:03:38;;;;;;;;;2.00;2.00;;;;;20.57;38.99;101589.53;5016577;28;45352;-56
2021/10/22 06:06:04;;;;;;;;;1.25;1.25;;;;;20.54;39.00;101591.38;5016500;28;45387;-55
2021/10/22 06:08:30;;;;;;;;;2.00;2.00;;;;;20.52;38.94;101587.09;5016505;28;45324;-55
2021/10/22 06:10:56;;;;;;;;;2.50;2.00;;;;;20.54;38.72;101593.16;5015480;28;45531;-55
2021/10/22 06:13:21;;;;;;;;;1.00;1.00;;;;;20.54;38.73;101596.66;5016225;28;46667;-56
2021/10/22 06:15:46;;;;;;;;;2.75;2.00;;;;;20.54;39.09;101595.81;5015766;28;45345;-55
2021/10/22 06:18:15;;;;;;;;;1.00;1.00;;;;;20.54;38.92;101595.81;5016803;28;45535;-56
2021/10/22 06:25:59;;;;;;;;;1.75;1.00;;;;;20.53;38.30;101602.81;5016403;28;45785;-56
2021/10/22 06:28:24;;;;;;;;;2.25;2.00;;;;;20.53;38.49;101596.72;5016443;28;45297;-57
2021/10/22 06:30:49;;;;;;;;;1.00;1.00;;;;;20.51;37.99;101598.56;5016432;28;45566;-56
2021/10/22 06:33:15;;;;;;;;;2.50;2.00;;;;;20.52;37.95;101602.91;5016117;28;46341;-56
2021/10/22 06:35:43;;;;;;;;;3.50;3.50;;;;;20.48;38.35;101606.59;5016425;28;45221;-56
2021/10/22 06:38:09;;;;;;;;;5.75;5.00;;;;;20.48;38.34;101606.59;5016544;28;45387;-56
2021/10/22 06:40:34;;;;;;;;;6.00;6.00;;;;;20.48;38.44;101619.75;5016341;28;45289;-56
2021/10/22 06:42:59;;;;;;;;;5.25;5.25;;;;;20.47;38.63;101625.94;5015843;28;45430;-56
2021/10/22 06:45:24;;;;;;;;;4.50;4.50;;;;;20.45;38.34;101631.28;5015768;28;48620;-56
2021/10/22 06:47:50;;;;;;;;;5.75;5.75;;;;;20.45;38.45;101639.19;5016141;28;45356;-56
2021/10/22 06:50:17;;;;;;;;;4.00;4.00;;;;;20.45;38.41;101640.97;5016175;28;45653;-55
2021/10/22 06:52:42;;;;;;;;;4.25;4.00;;;;;20.45;38.42;101643.59;5014738;28;47364;-55
2021/10/22 06:55:08;;;;;;;;;4.75;4.75;;;;;20.46;38.82;101648.78;5015691;28;45408;-55
2021/10/22 06:57:34;;;;;;;;;5.00;3.00;;;;;20.44;38.98;101652.41;5015908;28;45373;-56
2021/10/22 06:59:59;;;;;;;;;4.75;4.00;;;;;20.43;38.79;101659.44;5016142;28;45435;-55
2021/10/22 07:02:24;;;;;;;;;5.50;4.50;;;;;20.43;38.33;101662.06;5015593;28;46466;-56
2021/10/22 07:04:51;;;;;;;;;6.25;6.25;;;;;20.44;38.48;101662.94;5015611;28;45238;-55
2021/10/22 07:07:18;;;;;;;;;4.25;4.25;;;;;20.45;38.95;101669.94;5015881;28;45283;-55
2021/10/22 07:09:46;;;;;;;;;5.50;2.50;;;;;20.47;39.01;101665.44;5014976;28;45500;-55
2021/10/22 07:12:12;;;;;;;;;4.25;3.75;;;;;20.44;38.60;101662.94;5015943;28;45713;-54
2021/10/22 07:14:47;;;;;;;;;4.75;3.50;;;;;20.45;38.75;101665.50;5015779;28;45318;-55
2021/10/22 07:17:13;;;;;;;;;4.25;4.25;;;;;20.45;38.78;101664.66;5016070;28;45404;-55
2021/10/22 07:19:39;;;;;;;;;3.00;3.00;;;;;20.45;38.92;101665.50;5015999;28;45302;-55
2021/10/22 07:22:07;;;;;;;;;3.75;3.75;;;;;20.44;38.41;101668.22;5015543;28;46162;-56
2021/10/22 07:24:32;;;;;;;;;6.50;3.50;;;;;20.44;38.99;101669.06;5015756;28;45404;-55
2021/10/22 07:27:00;;;;;;;;;3.75;3.75;;;;;20.44;38.49;101668.22;5016641;28;45305;-56
2021/10/22 07:29:26;;;;;;;;;3.75;2.25;;;;;20.42;38.76;101670.91;5019426;28;45409;-55
2021/10/22 07:31:51;;;;;;;;;4.25;3.00;;;;;20.42;38.73;101678.78;5019032;28;46871;-56
2021/10/22 07:34:20;;;;;;;;;4.00;4.00;;;;;20.43;38.36;101677.88;5017794;28;45441;-56
2021/10/22 07:36:47;;;;;;;;;4.75;3.00;;;;;20.43;38.12;101687.56;5019457;28;45348;-55
2021/10/22 07:39:13;;;;;;;;;3.50;2.00;;;;;20.44;38.32;101690.13;5019310;28;45491;-55
2021/10/22 07:41:39;;;;;;;;;4.00;3.00;;;;;20.48;38.64;101689.09;5018571;28;45443;-56
2021/10/22 07:44:04;;;;;;;;;3.00;3.00;;;;;20.52;38.57;101688.03;5018594;28;45332;-52
2021/10/22 07:46:30;;;;;;;;;3.00;3.00;;;;;20.55;38.21;101685.25;5018802;28;45337;-53
2021/10/22 07:48:56;;;;;;;;;2.75;2.50;;;;;20.54;37.96;101685.34;5018916;28;45446;-54
2021/10/22 07:51:21;;;;;;;;;3.00;3.00;;;;;20.54;38.41;101690.63;5018589;28;45401;-58
2021/10/22 07:53:46;;;;;;;;;3.00;3.00;;;;;20.55;38.21;101689.69;5018774;28;45403;-51
2021/10/22 07:56:12;;;;;;;;;2.75;2.00;;;;;20.57;38.27;101689.63;5018852;28;45308;-56
2021/10/22 07:58:37;;;;;;;;;3.00;3.00;;;;;20.55;38.27;101693.16;5018887;28;46028;-56
2021/10/22 08:01:03;;;;;;;;;3.75;2.25;;;;;20.55;38.01;101700.22;5018496;28;45585;-55
2021/10/22 08:03:29;;;;;;;;;2.00;2.00;;;;;20.54;38.29;101701.16;5018214;28;45459;-55
2021/10/22 08:05:54;;;;;;;;;4.00;3.00;;;;;20.54;38.47;101703.78;5018428;28;45344;-55
2021/10/22 08:08:20;;;;;;;;;5.75;3.00;;;;;20.52;38.17;101697.72;5018759;28;45335;-55
2021/10/22 08:10:45;;;;;;;;;2.00;2.00;;;;;20.53;38.10;101704.69;5018071;28;46203;-55
2021/10/22 08:13:11;;;;;;;;;3.00;3.00;;;;;20.53;38.10;101709.97;5018239;28;45213;-55
2021/10/22 08:15:40;;;;;;;;;2.00;2.00;;;;;20.53;38.27;101713.44;5018389;28;45236;-59
2021/10/22 08:18:08;;;;;;;;;4.25;3.25;;;;;20.53;38.84;101716.06;5018463;28;45513;-55
2021/10/22 08:20:35;;;;;;;;;2.75;2.75;;;;;20.51;38.17;101719.69;5018193;28;45579;-56
2021/10/22 08:23:01;;;;;;;;;5.50;3.00;;;;;20.50;38.22;101720.63;5018081;28;45341;-55
2021/10/22 08:25:26;;;;;;;;;2.75;2.75;;;;;20.52;38.56;101729.31;5018297;28;45431;-56
2021/10/22 08:27:52;;;;;;;;;2.25;2.00;;;;;20.51;38.52;101731.06;5018328;28;45510;-56
2021/10/22 08:30:24;;;;;;;;;2.25;1.50;;;;;20.53;38.70;101744.19;5018279;28;46280;-56
2021/10/22 08:32:50;;;;;;;;;1.75;1.75;;;;;20.52;38.08;101738.06;5017994;28;45352;-56
2021/10/22 08:35:20;;;;;;;;;0.00;0.00;;;;;20.52;38.22;101743.31;5018354;28;45451;-56
2021/10/22 08:37:47;;;;;;;;;2.25;0.50;;;;;20.53;38.61;101749.47;5016998;28;45553;-56
2021/10/22 08:40:14;;;;;;;;;3.25;2.00;;;;;20.50;38.02;101745.19;5017833;28;46069;-56
2021/10/22 08:42:40;;;;;;;;;2.50;2.00;;;;;20.53;38.25;101749.47;5017825;28;45789;-56
2021/10/22 08:45:06;;;;;;;;;3.00;1.00;;;;;20.53;38.49;101746.84;5018007;28;45264;-56
2021/10/22 08:47:32;;;;;;;;;4.50;2.75;;;;;20.54;38.22;101748.53;5017973;28;45341;-56
2021/10/22 08:50:06;;;;;;;;;3.00;3.00;;;;;20.53;38.15;101747.66;5017535;28;46409;-56
2021/10/22 08:52:32;;;;;;;;;1.75;1.50;;;;;20.54;38.27;101753.81;5017570;28;45332;-56
2021/10/22 08:55:02;;;;;;;;;1.25;1.00;;;;;20.55;38.54;101756.38;5049707;28;45293;-55
2021/10/22 08:57:27;;;;;;;;;4.25;2.00;;;;;20.55;38.71;101750.25;5017923;28;45441;-56
2021/10/22 08:59:57;;;;;;;;;3.00;3.00;;;;;20.55;38.51;101756.38;5017251;28;45246;-56
2021/10/22 09:02:25;;;;;;;;;3.00;2.50;;;;;20.58;38.18;101760.66;5017501;28;45427;-56
2021/10/22 09:04:53;;;;;;;;;4.00;3.25;;;;;20.58;38.67;101760.66;5017368;28;45428;-55
2021/10/22 09:07:47;;;;;;;;;3.00;1.75;;;;;20.56;38.30;101751.94;5018016;28;45230;-56
2021/10/22 09:10:27;;;;;;;;;2.75;2.25;;;;;20.58;38.26;101760.66;5017324;28;46646;-54
2021/10/22 09:12:53;;;;;;;;;3.50;2.00;;;;;20.59;38.23;101766.78;5017432;28;45678;-56
2021/10/22 09:15:25;;;;;;;;;3.50;2.50;;;;;20.55;37.95;101761.66;5016473;28;45412;-56
2021/10/22 09:17:52;;;;;;;;;1.25;1.25;;;;;20.58;38.52;101765.06;5018096;28;45670;-56
2021/10/22 09:20:18;;;;;;;;;2.50;2.50;;;;;20.57;38.76;101769.47;5017482;28;45710;-56
2021/10/22 09:22:56;;;;;;;;;2.75;1.00;;;;;20.60;38.19;101766.72;5017087;28;45439;-56
2021/10/22 09:25:24;;;;;;;;;4.00;2.75;;;;;20.60;38.29;101776.41;5017123;28;45347;-56
2021/10/22 09:27:57;;;;;;;;;3.00;2.00;;;;;20.61;38.10;101778.97;5017264;28;45193;-56
2021/10/22 09:30:23;;;;;;;;;3.75;3.75;;;;;20.62;38.53;101783.31;5016981;28;46222;-56
2021/10/22 09:32:50;;;;;;;;;2.00;2.00;;;;;20.62;38.38;101787.72;5016091;28;45809;-56
2021/10/22 09:35:41;;;;;;;;;2.00;2.00;;;;;20.63;38.27;101790.31;5017014;28;45317;-56
2021/10/22 09:38:09;;;;;;;;;3.00;1.75;;;;;20.65;38.58;101795.50;5017274;28;45352;-56
2021/10/22 09:40:36;;;;;;;;;3.50;3.00;;;;;20.63;38.27;101779.78;5016756;28;45684;-56
2021/10/22 09:43:23;;;;;;;;;2.00;2.00;;;;;20.65;38.58;101793.75;5016938;28;45258;-56
2021/10/22 09:46:13;;;;;;;;;4.75;2.25;;;;;20.66;38.16;101795.47;5017218;28;45460;-56
2021/10/22 09:48:43;;;;;;;;;1.00;1.00;;;;;20.65;38.44;101793.75;5017119;28;45354;-56
2021/10/22 09:51:25;;;;;;;;;3.25;3.25;;;;;20.66;38.31;101800.72;5015848;28;46421;-55
2021/10/22 09:53:51;;;;;;;;;2.25;2.25;;;;;20.66;38.72;101798.09;5017115;28;45596;-55
2021/10/22 09:56:22;;;;;;;;;2.00;2.00;;;;;20.66;38.19;101802.50;5016710;28;45424;-55
2021/10/22 09:58:56;;;;;;;;;2.25;2.00;;;;;20.67;38.38;101796.31;5017031;28;45302;-54
2021/10/22 10:01:38;;;;;;;;;3.75;3.00;;;;;20.67;38.46;101802.41;5016661;28;45422;-55
2021/10/22 10:04:08;;;;;;;;;3.50;2.00;;;;;20.66;38.22;101795.47;5016212;28;45817;-56
2021/10/22 10:06:35;;;;;;;;;2.50;2.25;;;;;20.66;38.72;101798.09;5016714;28;45248;-55
2021/10/22 10:09:03;;;;;;;;;2.00;2.00;;;;;20.66;38.28;101803.38;5016744;28;45578;-55
2021/10/22 10:11:29;;;;;;;;;2.00;2.00;;;;;20.66;38.64;101806.00;5016317;28;46517;-55
2021/10/22 10:13:56;;;;;;;;;3.00;2.00;;;;;20.66;38.72;101806.00;5016608;28;45711;-55
2021/10/22 10:16:23;;;;;;;;;3.75;2.00;;;;;20.68;38.23;101803.28;5016983;28;45423;-55
2021/10/22 10:19:02;;;;;;;;;1.75;1.75;;;;;20.68;38.53;101808.56;5016753;28;45574;-56
2021/10/22 10:21:32;;;;;;;;;3.50;3.50;;;;;20.67;38.32;101804.22;5048184;28;46648;-55
2021/10/22 10:23:59;;;;;;;;;2.00;2.00;;;;;20.68;38.49;101803.28;5016258;28;45336;-56
2021/10/22 10:26:28;;;;;;;;;3.50;3.00;;;;;20.69;38.62;101811.13;5016823;28;45269;-56
2021/10/22 10:28:55;;;;;;;;;3.75;2.25;;;;;20.69;38.53;101812.91;5016750;28;45327;-55
2021/10/22 10:31:28;;;;;;;;;2.50;2.00;;;;;20.69;38.26;101816.38;5016482;28;46486;-55
2021/10/22 10:33:57;;;;;;;;;1.75;1.75;;;;;20.68;38.63;101819.09;5016458;28;45497;-56
2021/10/22 10:36:45;;;;;;;;;4.00;2.50;;;;;20.70;38.24;101819.91;5016679;28;45459;-56
2021/10/22 10:39:13;;;;;;;;;3.00;2.00;;;;;20.68;38.08;101824.38;5016366;28;45281;-55
2021/10/22 10:41:38;;;;;;;;;1.75;1.75;;;;;20.68;38.08;101819.09;5016048;28;46393;-56
2021/10/22 10:44:22;;;;;;;;;3.75;3.75;;;;;20.70;38.50;101818.09;5016041;28;45408;-56
2021/10/22 10:46:48;;;;;;;;;2.00;2.00;;;;;20.68;38.01;101813.81;5016358;28;45214;-56
2021/10/22 10:49:41;;;;;;;;;4.00;2.75;;;;;20.70;38.27;101820.75;5016264;28;45459;-56
2021/10/22 10:52:06;;;;;;;;;1.50;1.50;;;;;20.69;38.43;101819.03;5015985;28;45337;-56
2021/10/22 10:54:35;;;;;;;;;4.00;1.00;;;;;20.69;38.41;101816.38;5015884;28;45366;-56
2021/10/22 10:57:23;;;;;;;;;4.75;2.00;;;;;20.70;38.19;101812.00;5016057;28;45418;-56
2021/10/22 10:59:49;;;;;;;;;2.00;2.00;;;;;20.71;38.66;101818.97;5016207;28;45427;-56
2021/10/22 11:02:14;;;;;;;;;6.25;3.00;;;;;20.70;38.56;101810.19;5018369;28;46465;-56
2021/10/22 11:04:47;;;;;;;;;2.00;2.00;;;;;20.70;38.26;101814.63;5017859;28;45338;-56
2021/10/22 11:07:35;;;;;;;;;2.00;1.25;;;;;20.71;38.29;101808.44;5019400;28;45422;-56
2021/10/22 11:10:02;;;;;;;;;3.00;2.00;;;;;20.70;38.35;101806.72;5007433;28;45578;-56
2021/10/22 11:12:27;;;;;;;;;4.00;3.00;;;;;20.70;38.32;101804.94;5019106;28;46664;-56
2021/10/22 11:14:58;;;;;;;;;2.00;2.00;;;;;20.71;37.98;101813.72;5019440;28;45244;-56
2021/10/22 11:17:28;;;;;;;;;2.75;2.75;;;;;20.70;38.63;101802.31;5019492;28;45304;-55
2021/10/22 11:19:57;;;;;;;;;3.75;2.75;;;;;20.71;38.34;101808.44;5019725;28;45403;-56
2021/10/22 11:22:25;;;;;;;;;2.00;2.00;;;;;20.72;38.26;101804.91;5019262;28;47181;-56
2021/10/22 11:24:51;;;;;;;;;2.00;2.00;;;;;20.71;38.02;101808.44;5019147;28;45217;-56
2021/10/22 11:27:18;;;;;;;;;2.50;2.00;;;;;20.72;38.15;101804.03;5019041;28;45462;-55
2021/10/22 11:29:48;;;;;;;;;2.50;2.50;;;;;20.71;38.54;101811.06;5019283;28;45470;-53
2021/10/22 11:32:15;;;;;;;;;1.25;1.25;;;;;20.72;37.99;101793.47;5017530;28;46946;-55